Time;durP1;ratioP1;P1;durP2;ratioP2;P2;SDS_P1;SDS_P2;PMS_P1;PMS_P2;Temp;Humidity;BMP_temperature;BMP_pressure;BME280_temperature;BME280_humidity;BME280_pressure;Samples;Min_cycle;Max_cycle;Signal;HPM_P1;HPM_P2
2021/04/06 00:01:06;;;;;;;1.67;1.00;;;;;;;0.39;67.84;95951.13;1851998;77;27365;-77
2021/04/06 00:03:34;;;;;;;2.85;1.32;;;;;;;0.31;67.75;95948.08;1851866;77;25644;-77
2021/04/06 00:06:04;;;;;;;1.60;1.20;;;;;;;0.17;68.18;95955.53;1819470;77;25757;-77
2021/04/06 00:08:33;;;;;;;1.50;1.10;;;;;;;0.10;68.15;95958.10;1852002;77;26194;-77
2021/04/06 00:11:04;;;;;;;2.20;1.07;;;;;;;-0.05;68.29;95950.62;1852130;77;25667;-78
2021/04/06 00:13:36;;;;;;;1.37;1.10;;;;;;;-0.07;68.87;95949.97;1852430;77;28422;-77
2021/04/06 00:16:07;;;;;;;2.80;1.35;;;;;;;-0.08;69.06;95953.13;1852052;77;25774;-77
2021/04/06 00:18:35;;;;;;;2.35;1.12;;;;;;;-0.06;69.19;95958.25;1852144;77;25710;-78
2021/04/06 00:21:06;;;;;;;2.77;1.50;;;;;;;0.00;69.42;95960.20;1852013;77;25666;-77
2021/04/06 00:23:34;;;;;;;1.12;1.02;;;;;;;0.09;69.46;95961.76;1819482;77;25813;-77
2021/04/06 00:26:02;;;;;;;4.75;1.70;;;;;;;0.09;69.49;95942.36;1851920;77;27545;-77
2021/04/06 00:28:34;;;;;;;1.47;1.10;;;;;;;0.06;69.46;95935.58;1851947;77;25707;-77
2021/04/06 00:31:04;;;;;;;1.95;1.05;;;;;;;0.04;69.56;95928.30;1852214;77;25406;-77
2021/04/06 00:33:42;;;;;;;2.85;1.20;;;;;;;0.06;69.77;95939.56;1852025;77;25590;-77
2021/04/06 00:36:11;;;;;;;1.72;1.30;;;;;;;0.13;69.74;95932.51;1852065;77;25814;-77
2021/04/06 00:38:41;;;;;;;3.77;1.32;;;;;;;0.21;69.76;95923.15;1851995;77;27490;-77
2021/04/06 00:41:13;;;;;;;3.12;1.67;;;;;;;0.27;69.71;95944.96;1851805;77;25903;-77
2021/04/06 00:43:44;;;;;;;4.03;2.15;;;;;;;0.38;69.70;95966.74;1852082;77;32056;-77
2021/04/06 00:46:22;;;;;;;2.30;1.72;;;;;;;0.50;69.64;95983.86;1852029;77;25717;-76
2021/04/06 00:48:53;;;;;;;2.65;1.35;;;;;;;0.58;69.59;95986.44;1851731;77;25741;-76
2021/04/06 00:51:21;;;;;;;2.07;1.50;;;;;;;0.67;69.45;96002.09;1819540;77;28538;-76
2021/04/06 00:54:05;;;;;;;3.60;1.80;;;;;;;0.67;69.39;95981.34;1851885;77;26327;-77
2021/04/06 00:56:39;;;;;;;2.98;1.72;;;;;;;0.67;69.44;95978.69;1851430;77;25755;-77
2021/04/06 00:59:14;;;;;;;2.67;2.00;;;;;;;0.69;69.47;95979.33;1851942;77;26285;-77
2021/04/06 01:01:46;;;;;;;8.45;2.00;;;;;;;0.69;69.44;95984.64;1852011;77;25717;-76
2021/04/06 01:04:18;;;;;;;2.22;1.82;;;;;;;0.70;69.45;95983.14;1851984;77;27491;-76
2021/04/06 01:07:14;;;;;;;3.87;2.22;;;;;;;0.61;69.18;95979.41;1851891;77;25643;-76
2021/04/06 01:09:51;;;;;;;2.58;1.80;;;;;;;0.46;69.31;95964.02;1851994;77;25698;-76
2021/04/06 01:12:27;;;;;;;2.87;1.52;;;;;;;0.40;69.45;95958.09;1852098;77;25724;-76
2021/04/06 01:14:56;;;;;;;2.58;1.82;;;;;;;0.38;69.49;95976.86;1851889;77;25740;-76
2021/04/06 01:17:32;;;;;;;2.42;1.45;;;;;;;0.31;69.45;95972.80;1852001;77;28475;-77
2021/04/06 01:20:09;;;;;;;1.62;1.42;;;;;;;0.40;69.40;95975.34;1851989;77;26120;-76
2021/04/06 01:22:38;;;;;;;5.03;2.12;;;;;;;0.45;69.36;95969.83;1850549;77;25709;-76
2021/04/06 01:25:07;;;;;;;3.92;2.40;;;;;;;0.51;69.41;95982.35;1843062;77;25796;-76
2021/04/06 01:27:35;;;;;;;3.02;1.95;;;;;;;0.54;69.32;95989.13;1843062;77;25771;-76
2021/04/06 01:30:04;;;;;;;3.87;1.92;;;;;;;0.54;69.24;95987.80;1843136;77;28460;-76
2021/04/06 01:32:31;;;;;;;3.83;2.45;;;;;;;0.53;68.96;95980.84;1842941;77;25637;-76
2021/04/06 01:35:00;;;;;;;3.87;2.30;;;;;;;0.51;69.02;95986.84;1842996;77;25602;-77
2021/04/06 01:37:28;;;;;;;3.72;2.15;;;;;;;0.53;69.07;95984.83;1843022;77;25662;-76
2021/04/06 01:39:58;;;;;;;3.27;2.42;;;;;;;0.51;69.04;95989.49;1843022;77;25714;-76
2021/04/06 01:42:29;;;;;;;4.05;2.58;;;;;;;0.51;69.03;95996.12;1843125;77;27596;-77
2021/04/06 01:44:57;;;;;;;4.42;2.40;;;;;;;0.28;68.93;96005.00;1808573;77;26406;-77
2021/04/06 01:47:27;;;;;;;2.55;2.35;;;;;;;0.27;69.23;96008.66;1843094;77;25690;-76
2021/04/06 01:49:57;;;;;;;3.92;3.05;;;;;;;0.29;69.30;96014.61;1842992;77;25707;-77
2021/04/06 01:52:25;;;;;;;3.62;2.70;;;;;;;0.29;69.43;96007.98;1843067;77;25685;-77
2021/04/06 01:55:01;;;;;;;7.87;2.75;;;;;;;0.29;69.43;96000.02;1843020;77;27486;-76
2021/04/06 01:57:29;;;;;;;4.47;2.30;;;;;;;0.24;69.40;95998.40;1842034;77;25706;-76
2021/04/06 02:00:03;;;;;;;7.40;2.90;;;;;;;0.24;69.42;95987.78;1842912;77;25825;-76
2021/04/06 02:02:30;;;;;;;3.02;2.62;;;;;;;0.25;69.45;95997.39;1841759;77;25793;-76
2021/04/06 02:04:59;;;;;;;3.80;2.93;;;;;;;0.27;69.37;95985.27;1843413;77;25734;-76
2021/04/06 02:07:33;;;;;;;5.05;2.92;;;;;;;0.24;69.42;95991.77;1843018;77;27493;-76
2021/04/06 02:10:00;;;;;;;4.17;3.08;;;;;;;0.28;69.35;96007.66;1842792;77;25749;-77
2021/04/06 02:12:28;;;;;;;4.15;2.83;;;;;;;0.35;69.30;95983.38;1842061;77;25732;-76
2021/04/06 02:15:01;;;;;;;5.05;3.10;;;;;;;0.27;69.31;95990.58;1842959;77;25816;-76
2021/04/06 02:17:28;;;;;;;2.70;2.30;;;;;;;0.21;69.22;96013.38;1843020;77;25703;-77
2021/04/06 02:19:56;;;;;;;3.17;2.60;;;;;;;0.27;69.25;96006.00;1842964;77;28862;-77
2021/04/06 02:22:23;;;;;;;3.70;2.87;;;;;;;0.18;69.21;95987.20;1842874;77;25773;-77
2021/04/06 02:24:53;;;;;;;4.28;2.77;;;;;;;0.12;69.03;95992.42;1842976;77;25846;-76
2021/04/06 02:27:28;;;;;;;4.83;2.77;;;;;;;0.07;69.24;96000.91;1843081;77;25334;-77
2021/04/06 02:29:59;;;;;;;3.92;2.83;;;;;;;0.21;69.33;95998.78;1843170;77;25650;-77
2021/04/06 02:32:31;;;;;;;3.95;3.02;;;;;;;0.34;69.29;95997.66;1843218;77;27499;-77
2021/04/06 02:35:06;;;;;;;4.53;3.27;;;;;;;0.41;69.40;95988.95;1843050;77;25649;-77
2021/04/06 02:37:38;;;;;;;5.53;3.47;;;;;;;0.35;69.36;95985.20;1839656;77;25717;-77
2021/04/06 02:40:10;;;;;;;7.15;4.60;;;;;;;0.38;69.53;95991.95;1843232;77;26517;-77
2021/04/06 02:42:41;;;;;;;10.28;4.92;;;;;;;0.39;69.48;95996.27;1842281;77;25798;-77
2021/04/06 02:45:15;;;;;;;11.30;5.55;;;;;;;0.39;69.47;95993.11;1843073;77;28655;-77
2021/04/06 02:48:03;;;;;;;8.10;4.12;;;;;;;0.36;69.45;95987.66;1842936;77;25926;-77
2021/04/06 02:50:26;;;;;;;;;;;;;;;0.38;69.58;95991.95;1844315;77;25646;-76
2021/04/06 02:52:55;;;;;;;6.67;3.90;;;;;;;0.32;69.59;96001.48;1843074;77;25700;-77
2021/04/06 02:55:25;;;;;;;3.95;3.37;;;;;;;0.33;69.47;96014.59;1843078;77;25753;-77
2021/04/06 02:57:55;;;;;;;5.95;3.87;;;;;;;0.41;69.46;96018.14;1843054;77;28446;-77
2021/04/06 03:00:31;;;;;;;6.45;3.80;;;;;;;0.46;69.40;96031.21;1842845;77;25734;-77
2021/04/06 03:03:03;;;;;;;4.62;3.55;;;;;;;0.48;69.38;96044.30;1842873;77;25275;-77
2021/04/06 03:05:34;;;;;;;4.42;3.72;;;;;;;0.36;69.09;96042.07;1843158;77;26373;-77
2021/04/06 03:08:02;;;;;;;5.20;3.58;;;;;;;0.31;69.26;96035.17;1843065;77;25792;-77
2021/04/06 03:10:31;;;;;;;7.65;3.98;;;;;;;0.33;69.36;96033.66;1843141;77;28575;-77
2021/04/06 03:13:09;;;;;;;9.53;4.28;;;;;;;0.26;68.84;96030.89;1843094;77;25706;-77
2021/04/06 03:15:42;;;;;;;7.80;3.90;;;;;;;0.10;69.09;96046.98;1842564;77;25681;-77
2021/04/06 03:18:11;;;;;;;8.08;3.92;;;;;;;0.10;69.18;96039.03;1842287;77;25811;-77
2021/04/06 03:20:41;;;;;;;8.25;4.40;;;;;;;0.05;68.86;96029.44;1843115;77;25311;-77
2021/04/06 03:23:09;;;;;;;7.55;4.30;;;;;;;-0.06;69.11;96025.89;1843943;77;27497;-77
2021/04/06 03:25:38;;;;;;;6.62;4.58;;;;;;;-0.05;69.01;96031.53;1851960;77;25694;-77
2021/04/06 03:28:10;;;;;;;8.55;4.92;;;;;;;-0.10;68.96;96047.14;1852154;77;25733;-77
2021/04/06 03:30:38;;;;;;;8.50;4.85;;;;;;;-0.18;68.95;96045.89;1851802;77;25760;-77
2021/04/06 03:33:09;;;;;;;7.78;4.92;;;;;;;-0.25;69.09;96038.33;1852171;77;25660;-77
2021/04/06 03:35:40;;;;;;;11.05;5.15;;;;;;;-0.19;69.28;96024.34;1852002;77;27692;-77
2021/04/06 03:38:11;;;;;;;9.85;5.30;;;;;;;-0.13;69.33;96021.00;1852003;77;26100;-77
2021/04/06 03:40:41;;;;;;;8.13;4.27;;;;;;;-0.18;69.04;96029.97;1852252;77;25739;-77
2021/04/06 03:43:20;;;;;;;11.20;5.97;;;;;;;-0.21;69.29;96027.67;1852042;77;25808;-77
2021/04/06 03:45:59;;;;;;;11.55;5.78;;;;;;;-0.25;69.28;96010.48;1852103;77;25873;-77
2021/04/06 03:48:29;;;;;;;14.00;7.22;;;;;;;-0.24;69.37;96014.26;1852026;77;27491;-77
2021/04/06 03:50:57;;;;;;;12.85;5.87;;;;;;;-0.20;69.39;96024.02;1851959;77;26301;-77
2021/04/06 03:53:26;;;;;;;12.75;6.78;;;;;;;-0.18;69.23;96019.37;1852002;77;25834;-77
2021/04/06 03:56:12;;;;;;;14.55;7.60;;;;;;;-0.23;69.40;96038.95;1819586;77;25749;-77
2021/04/06 03:58:43;;;;;;;9.28;6.15;;;;;;;-0.18;69.54;96045.89;1852083;77;25319;-77
2021/04/06 04:01:13;;;;;;;11.68;6.28;;;;;;;-0.05;69.51;96038.98;1852002;77;27485;-77
2021/04/06 04:03:40;;;;;;;10.65;5.83;;;;;;;0.03;69.38;96042.06;1851830;77;25832;-78
2021/04/06 04:06:08;;;;;;;10.38;5.85;;;;;;;0.06;69.28;96036.40;1852122;77;25764;-77
2021/04/06 04:08:36;;;;;;;24.15;12.68;;;;;;;0.03;69.08;96034.59;1851865;77;26196;-76
2021/04/06 04:11:03;;;;;;;21.33;9.33;;;;;;;-0.05;69.07;96035.50;1852119;77;25798;-77
2021/04/06 04:13:31;;;;;;;28.20;13.58;;;;;;;-0.05;69.12;96028.88;1852040;77;27538;-77
2021/04/06 04:15:58;;;;;;;37.78;18.17;;;;;;;-0.01;68.99;96042.11;1851976;77;25641;-78
2021/04/06 04:18:26;;;;;;;56.00;29.23;;;;;;;-0.07;68.86;96052.92;1851981;77;25726;-77
2021/04/06 04:20:53;;;;;;;64.95;33.98;;;;;;;-0.06;68.96;96057.23;1852059;77;25715;-77
2021/04/06 04:23:21;;;;;;;35.65;16.25;;;;;;;-0.02;69.05;96069.14;1851891;77;25740;-78
2021/04/06 04:25:48;;;;;;;41.30;17.00;;;;;;;-0.01;69.01;96066.81;1852006;77;27491;-77
2021/04/06 04:28:15;;;;;;;33.60;15.88;;;;;;;0.01;69.14;96058.66;1851889;77;26288;-77
2021/04/06 04:30:47;;;;;;;21.12;10.15;;;;;;;-0.06;69.02;96057.73;1851980;77;25319;-77
2021/04/06 04:33:12;;;;;;;30.57;15.65;;;;;;;-0.02;68.99;96056.38;1851616;77;26436;-77
2021/04/06 04:35:40;;;;;;;35.48;19.07;;;;;;;-0.06;68.87;96048.44;1852087;77;25792;-77
2021/04/06 04:38:09;;;;;;;32.48;15.83;;;;;;;-0.22;68.80;96049.89;1851939;77;27689;-77
2021/04/06 04:40:43;;;;;;;25.70;14.95;;;;;;;-0.27;68.98;96045.13;1851900;77;26243;-77
2021/04/06 04:43:12;;;;;;;22.32;11.75;;;;;;;-0.19;69.23;96056.17;1851962;77;25689;-77
2021/04/06 04:45:39;;;;;;;22.00;11.43;;;;;;;-0.19;69.12;96064.95;1852014;77;25908;-77
2021/04/06 04:48:07;;;;;;;17.30;10.25;;;;;;;-0.17;69.24;96068.26;1852078;77;26217;-77
2021/04/06 04:50:35;;;;;;;20.02;10.32;;;;;;;-0.14;69.08;96081.67;1851939;77;27564;-77
2021/04/06 04:53:02;;;;;;;20.52;13.68;;;;;;;-0.17;69.16;96084.67;1851888;77;26330;-77
2021/04/06 04:55:30;;;;;;;21.70;11.45;;;;;;;-0.20;69.17;96086.34;1851952;77;25742;-77
2021/04/06 04:57:57;;;;;;;23.00;13.58;;;;;;;-0.23;69.00;96086.69;1851889;77;25673;-77
2021/04/06 05:00:25;;;;;;;15.48;9.55;;;;;;;-0.27;69.11;96094.19;1851963;77;25799;-77
2021/04/06 05:02:53;;;;;;;15.78;8.20;;;;;;;-0.29;68.76;96099.34;1851897;77;28385;-77
2021/04/06 05:05:21;;;;;;;27.13;14.15;;;;;;;-0.37;68.60;96099.73;1851850;77;25724;-77
2021/04/06 05:07:48;;;;;;;23.05;14.65;;;;;;;-0.44;68.81;96095.28;1851932;77;25704;-77
2021/04/06 05:10:17;;;;;;;26.05;14.13;;;;;;;-0.45;68.81;96094.45;1851921;77;26022;-77
2021/04/06 05:12:48;;;;;;;30.45;14.80;;;;;;;-0.37;68.85;96113.48;1851988;77;25779;-76
2021/04/06 05:15:17;;;;;;;17.42;8.73;;;;;;;-0.37;68.72;96090.95;1852119;77;27524;-76
2021/04/06 05:17:45;;;;;;;18.05;9.80;;;;;;;-0.37;68.72;96090.95;1851821;77;25645;-77
2021/04/06 05:20:14;;;;;;;16.20;8.10;;;;;;;-0.23;68.51;96103.92;1851937;77;25694;-76
2021/04/06 05:22:42;;;;;;;13.90;7.33;;;;;;;-0.20;68.47;96112.86;1851894;77;25628;-76
2021/04/06 05:25:10;;;;;;;12.28;6.12;;;;;;;-0.18;68.34;96101.59;1852210;77;25792;-77
2021/04/06 05:27:38;;;;;;;9.55;5.67;;;;;;;-0.19;68.22;96095.45;1852461;77;27635;-76
2021/04/06 05:30:07;;;;;;;10.50;7.40;;;;;;;-0.19;68.14;96091.97;1852452;77;26424;-76
2021/04/06 05:32:35;;;;;;;16.00;7.37;;;;;;;-0.15;68.19;96098.59;1815425;79;25807;-77
2021/04/06 05:35:02;;;;;;;11.50;5.87;;;;;;;-0.14;68.39;96102.89;1799134;79;26471;-76
2021/04/06 05:37:30;;;;;;;11.35;5.78;;;;;;;-0.20;68.19;96112.86;1790947;79;26053;-76
2021/04/06 05:39:57;;;;;;;10.23;5.22;;;;;;;-0.17;68.56;96112.52;1815275;79;27496;-77
2021/04/06 05:42:25;;;;;;;10.10;5.90;;;;;;;-0.10;68.40;96110.30;1798872;79;26212;-76
2021/04/06 05:44:53;;;;;;;11.60;6.22;;;;;;;-0.15;68.31;96123.78;1781334;80;25735;-76
2021/04/06 05:47:40;;;;;;;11.93;6.20;;;;;;;-0.18;68.41;96105.06;1799003;79;25827;-76
2021/04/06 05:50:09;;;;;;;23.05;7.58;;;;;;;-0.33;68.12;96102.01;1790898;79;25687;-79
2021/04/06 05:52:37;;;;;;;15.83;6.67;;;;;;;-0.47;68.10;96093.80;1815259;79;27470;-80
2021/04/06 05:55:07;;;;;;;24.32;12.30;;;;;;;-0.58;68.62;96092.88;1798948;79;25756;-79
2021/04/06 05:57:35;;;;;;;36.25;18.30;;;;;;;-0.49;68.87;96102.45;1815405;79;25967;-78
2021/04/06 06:00:08;;;;;;;25.80;14.18;;;;;;;-0.45;68.91;96101.09;1799124;79;26544;-80
2021/04/06 06:02:40;;;;;;;24.50;10.80;;;;;;;-0.33;69.09;96111.29;1815321;78;25863;-78
2021/04/06 06:05:09;;;;;;;21.33;8.40;;;;;;;-0.22;68.89;96106.91;1799300;79;28413;-79
2021/04/06 06:07:36;;;;;;;16.67;8.08;;;;;;;-0.18;68.65;96100.26;1781407;80;25700;-78
2021/04/06 06:10:33;;;;;;;10.78;6.35;;;;;;;-0.18;68.61;96099.76;1799136;79;25723;-78
2021/04/06 06:13:24;;;;;;;19.90;6.60;;;;;;;-0.18;68.46;96097.61;1781566;80;25736;-80
2021/04/06 06:16:20;;;;;;;18.52;7.12;;;;;;;-0.17;68.51;96101.91;1799079;79;25462;-79
2021/04/06 06:19:04;;;;;;;130.80;50.17;;;;;;;-0.13;68.66;96112.00;1781425;79;27605;-80
2021/04/06 06:21:50;;;;;;;47.38;22.10;;;;;;;-0.06;68.70;96116.09;1804651;79;25734;-78
2021/04/06 06:27:33;;;;;;;18.45;9.53;;;;;;;0.08;68.59;96099.91;1887023;76;34754;-78
2021/04/06 06:30:19;;;;;;;17.02;9.63;;;;;;;0.02;68.48;96108.05;1857166;77;25783;-78
2021/04/06 06:32:47;;;;;;;20.43;11.30;;;;;;;0.00;68.25;96107.44;1857872;77;26793;-81
2021/04/06 06:35:35;;;;;;;23.67;14.33;;;;;;;0.00;68.41;96091.52;1857767;77;25632;-79
2021/04/06 06:38:32;;;;;;;20.45;9.38;;;;;;;0.02;68.41;96089.48;1857939;77;25737;-81
2021/04/06 06:41:20;;;;;;;18.25;7.92;;;;;;;0.04;68.18;96085.33;1857952;77;25859;-81
2021/04/06 06:43:51;;;;;;;18.30;8.88;;;;;;;0.03;68.03;96095.12;1857996;77;26081;-77
2021/04/06 06:46:30;;;;;;;17.98;8.48;;;;;;;0.05;68.07;96083.83;1857835;77;27547;-80
2021/04/06 06:49:08;;;;;;;19.55;9.95;;;;;;;0.04;68.16;96098.09;1857858;77;25729;-77
2021/04/06 06:51:38;;;;;;;15.80;7.87;;;;;;;0.09;68.19;96092.27;1857742;77;26324;-78
2021/04/06 06:54:07;;;;;;;18.25;7.60;;;;;;;0.13;68.26;96092.22;1857835;77;25708;-78
2021/04/06 06:56:42;;;;;;;15.25;7.75;;;;;;;0.17;67.99;96093.52;1857918;77;25676;-80
2021/04/06 06:59:10;;;;;;;15.85;8.05;;;;;;;0.15;67.89;96092.36;1857764;77;27577;-78
2021/04/06 07:01:39;;;;;;;17.10;6.37;;;;;;;0.13;67.88;96102.33;1857776;77;26011;-79
2021/04/06 07:04:10;;;;;;;13.98;6.17;;;;;;;0.12;67.69;96106.52;1857893;77;25716;-81
2021/04/06 07:06:44;;;;;;;14.38;6.85;;;;;;;0.06;67.57;96094.77;1857792;77;25805;-78
2021/04/06 07:09:25;;;;;;;16.30;7.42;;;;;;;0.03;67.57;96101.75;1857866;77;25687;-79
2021/04/06 07:11:58;;;;;;;16.60;7.95;;;;;;;0.11;67.88;96100.38;1856995;77;27494;-78
2021/04/06 07:14:28;;;;;;;19.45;9.13;;;;;;;0.21;67.94;96090.34;1857741;77;25629;-79
2021/04/06 07:17:01;;;;;;;18.62;9.30;;;;;;;0.33;67.82;96089.41;1857803;77;25760;-80
2021/04/06 07:19:33;;;;;;;20.30;10.53;;;;;;;0.40;68.00;96103.59;1824818;77;26225;-79
2021/04/06 07:22:04;;;;;;;19.17;11.47;;;;;;;0.48;68.03;96112.01;1858128;77;25730;-79
2021/04/06 07:24:38;;;;;;;15.72;8.65;;;;;;;0.55;67.84;96116.41;1857809;77;27783;-79
2021/04/06 07:27:13;;;;;;;22.45;8.90;;;;;;;0.60;67.37;96113.22;1857274;77;25613;-78
2021/04/06 07:29:42;;;;;;;20.43;7.85;;;;;;;0.68;67.14;96105.16;1857895;77;25646;-78
2021/04/06 07:32:13;;;;;;;17.25;8.40;;;;;;;0.74;67.08;96108.41;1857693;77;26097;-78
2021/04/06 07:34:43;;;;;;;16.32;7.62;;;;;;;0.76;66.94;96107.72;1857755;77;25775;-79
2021/04/06 07:37:12;;;;;;;11.95;6.58;;;;;;;0.77;66.68;96105.39;1857430;77;28386;-78
2021/04/06 07:39:41;;;;;;;13.40;6.87;;;;;;;0.73;66.84;96104.92;1857047;77;25716;-77
2021/04/06 07:42:10;;;;;;;11.05;6.97;;;;;;;0.76;66.79;96105.06;1857193;77;25721;-79
2021/04/06 07:44:40;;;;;;;16.10;6.42;;;;;;;0.80;66.78;96103.70;1857112;77;25751;-78
2021/04/06 07:47:08;;;;;;;17.25;5.50;;;;;;;0.85;66.59;96106.63;1857208;77;26085;-78
2021/04/06 07:49:38;;;;;;;13.50;5.30;;;;;;;0.83;66.34;96107.84;1857155;77;28151;-79
2021/04/06 07:52:19;;;;;;;11.73;5.08;;;;;;;0.76;66.17;96114.36;1857102;77;26080;-78
2021/04/06 07:54:49;;;;;;;18.15;5.75;;;;;;;0.62;66.26;96121.80;1857096;77;25606;-79
2021/04/06 07:57:18;;;;;;;14.40;5.83;;;;;;;0.57;66.56;96118.38;1857187;77;25646;-77
2021/04/06 07:59:52;;;;;;;13.15;5.90;;;;;;;0.50;66.69;96117.94;1857225;77;25933;-78
2021/04/06 08:02:26;;;;;;;19.00;6.05;;;;;;;0.55;66.78;96123.55;1857281;77;28409;-78
2021/04/06 08:04:57;;;;;;;25.90;8.03;;;;;;;0.63;67.19;96126.11;1857055;77;26032;-77
2021/04/06 08:07:33;;;;;;;23.22;9.18;;;;;;;0.73;66.76;96116.05;1857227;77;25633;-77
2021/04/06 08:10:27;;;;;;;15.93;6.65;;;;;;;0.65;66.71;96116.97;1857160;77;26094;-77
2021/04/06 08:12:55;;;;;;;20.55;7.40;;;;;;;0.61;66.97;96120.98;1857297;77;25690;-79
2021/04/06 08:15:26;;;;;;;19.57;8.80;;;;;;;0.63;67.19;96123.45;1857130;77;27595;-79
2021/04/06 08:17:54;;;;;;;24.67;8.35;;;;;;;0.71;67.25;96120.23;1856530;77;25845;-79
2021/04/06 08:20:42;;;;;;;23.50;10.20;;;;;;;0.72;67.20;96129.03;1824237;77;25905;-79
2021/04/06 08:23:18;;;;;;;19.27;8.10;;;;;;;0.63;67.16;96132.25;1857129;77;25681;-79
2021/04/06 08:25:48;;;;;;;16.20;7.37;;;;;;;0.61;67.04;96133.43;1853321;76;25641;-79
2021/04/06 08:28:34;;;;;;;13.25;6.42;;;;;;;0.66;66.86;96149.66;1857118;77;27466;-78
2021/04/06 08:31:19;;;;;;;17.90;8.00;;;;;;;0.71;66.64;96145.97;1857041;77;25644;-79
2021/04/06 08:33:47;;;;;;;19.35;8.83;;;;;;;0.67;66.76;96146.00;1857062;77;25631;-79
2021/04/06 08:36:24;;;;;;;17.82;9.80;;;;;;;0.58;66.47;96144.44;1857156;77;25703;-78
2021/04/06 08:38:53;;;;;;;18.55;9.35;;;;;;;0.59;66.62;96147.42;1856426;77;25784;-79
2021/04/06 08:41:29;;;;;;;26.93;9.73;;;;;;;0.61;66.47;96149.36;1857125;77;27529;-78
2021/04/06 08:44:00;;;;;;;19.35;10.48;;;;;;;0.52;66.62;96151.78;1857027;77;25626;-79
2021/04/06 08:46:40;;;;;;;20.37;8.83;;;;;;;0.56;66.42;96154.41;1857133;77;25672;-79
2021/04/06 08:49:24;;;;;;;17.27;8.20;;;;;;;0.63;66.15;96157.98;1857023;77;25729;-78
2021/04/06 08:52:03;;;;;;;18.45;7.55;;;;;;;0.67;66.15;96156.62;1857176;77;25811;-79
2021/04/06 08:54:34;;;;;;;13.80;6.85;;;;;;;0.66;65.98;96158.95;1857148;77;27552;-80
2021/04/06 08:57:06;;;;;;;15.20;7.58;;;;;;;0.65;65.84;96155.98;1857129;77;26286;-80
2021/04/06 08:59:39;;;;;;;16.27;8.53;;;;;;;0.60;65.91;96155.71;1857373;77;32206;-80
2021/04/06 09:02:16;;;;;;;19.87;8.20;;;;;;;0.56;65.77;96161.05;1857158;77;25791;-79
2021/04/06 09:04:48;;;;;;;20.80;6.72;;;;;;;0.47;66.10;96166.11;1857233;77;25672;-80
2021/04/06 09:07:31;;;;;;;29.50;12.47;;;;;;;0.48;66.04;96146.52;1857201;77;28404;-79
2021/04/06 09:10:02;;;;;;;25.30;12.13;;;;;;;0.41;66.03;96143.74;1856982;77;25692;-79
2021/04/06 09:12:30;;;;;;;16.42;7.58;;;;;;;0.50;66.14;96144.48;1852624;77;25697;-79
2021/04/06 09:14:58;;;;;;;21.20;8.15;;;;;;;0.56;66.12;96132.66;1824246;77;26162;-78
2021/04/06 09:17:32;;;;;;;20.05;7.70;;;;;;;0.59;66.09;96121.69;1857081;77;25783;-79
2021/04/06 09:20:14;;;;;;;15.95;7.67;;;;;;;0.68;65.92;96126.41;1857130;77;27488;-79
2021/04/06 09:22:45;;;;;;;45.28;17.80;;;;;;;0.74;65.82;96125.67;1857000;77;26138;-78
2021/04/06 09:25:24;;;;;;;51.05;22.45;;;;;;;0.82;65.78;96132.25;1857279;77;25684;-79
2021/04/06 09:27:59;;;;;;;35.80;18.48;;;;;;;0.86;65.62;96121.56;1856956;77;25682;-78
2021/04/06 09:30:37;;;;;;;27.77;13.83;;;;;;;0.86;65.55;96118.91;1857185;77;25778;-78
2021/04/06 09:33:14;;;;;;;27.13;11.38;;;;;;;0.98;65.62;96110.80;1857198;77;27488;-79
2021/04/06 09:35:49;;;;;;;18.15;9.20;;;;;;;1.11;65.72;96101.36;1856913;77;26138;-78
2021/04/06 09:38:23;;;;;;;18.85;8.25;;;;;;;1.16;65.49;96106.45;1857076;77;26599;-78
2021/04/06 09:40:51;;;;;;;23.65;10.98;;;;;;;1.27;65.23;96105.16;1856994;77;25787;-78
2021/04/06 09:43:19;;;;;;;49.75;19.12;;;;;;;1.35;65.00;96104.54;1857111;77;25802;-78
2021/04/06 09:45:51;;;;;;;94.90;33.10;;;;;;;1.42;64.94;96111.28;1857065;77;27492;-78
2021/04/06 09:48:20;;;;;;;61.40;24.25;;;;;;;1.48;64.63;96102.55;1857102;77;26049;-78
2021/04/06 09:51:04;;;;;;;38.23;15.65;;;;;;;1.54;64.84;96107.14;1857031;77;25776;-78
2021/04/06 09:53:37;;;;;;;26.60;10.55;;;;;;;1.56;65.06;96102.46;1857088;77;25700;-78
2021/04/06 09:56:06;;;;;;;24.85;10.80;;;;;;;1.63;64.38;96100.69;1857180;77;25744;-78
2021/04/06 09:58:36;;;;;;;25.08;9.65;;;;;;;1.73;64.29;96103.04;1857015;77;27493;-78
2021/04/06 10:01:22;;;;;;;28.83;14.20;;;;;;;1.82;64.25;96100.58;1856985;77;25637;-79
2021/04/06 10:03:55;;;;;;;28.55;11.43;;;;;;;1.89;64.17;96102.81;1857084;77;25744;-78
2021/04/06 10:06:31;;;;;;;;;;;;;;;1.78;64.15;96108.13;1859921;77;25735;-78
2021/04/06 10:08:59;;;;;;;45.50;21.37;;;;;;;1.67;63.76;96123.76;1856888;77;25736;-78
2021/04/06 10:11:27;;;;;;;141.62;45.73;;;;;;;1.49;63.96;96134.78;1857059;77;27490;-78
2021/04/06 10:13:55;;;;;;;188.65;54.83;;;;;;;1.48;63.83;96139.78;1856898;77;26043;-79
2021/04/06 10:16:23;;;;;;;97.70;36.33;;;;;;;1.52;63.98;96148.22;1857100;77;25751;-79
2021/04/06 10:18:50;;;;;;;50.35;21.27;;;;;;;1.40;63.93;96150.53;1856995;77;25737;-78
2021/04/06 10:21:22;;;;;;;44.83;16.57;;;;;;;1.29;63.95;96149.67;1857107;77;25716;-79
2021/04/06 10:24:03;;;;;;;21.57;10.05;;;;;;;1.32;64.27;96149.31;1857113;77;33072;-78
2021/04/06 10:26:30;;;;;;;15.20;6.95;;;;;;;1.44;64.08;96138.52;1856745;77;25741;-79
2021/04/06 10:29:09;;;;;;;19.25;7.45;;;;;;;1.53;63.89;96125.44;1857070;77;25637;-79
2021/04/06 10:31:52;;;;;;;18.95;7.20;;;;;;;1.60;63.84;96118.34;1857145;77;25681;-79
2021/04/06 10:34:20;;;;;;;20.15;9.75;;;;;;;1.66;63.62;96118.94;1857105;77;25740;-79
2021/04/06 10:36:58;;;;;;;19.67;7.67;;;;;;;1.70;63.37;96109.55;1857041;77;27555;-79
2021/04/06 10:39:41;;;;;;;21.37;8.08;;;;;;;1.71;63.33;96112.53;1857029;77;25826;-79
2021/04/06 10:42:13;;;;;;;13.88;6.40;;;;;;;1.66;63.48;96104.81;1857089;77;26487;-79
2021/04/06 10:44:43;;;;;;;26.73;8.28;;;;;;;1.68;63.30;96102.30;1857182;77;25777;-79
2021/04/06 10:47:24;;;;;;;23.67;9.38;;;;;;;1.70;63.08;96106.89;1856991;77;25907;-79
2021/04/06 10:49:58;;;;;;;137.57;42.62;;;;;;;1.77;63.24;96112.30;1856960;77;27505;-79
2021/04/06 10:52:35;;;;;;;186.97;57.00;;;;;;;1.86;63.09;96116.99;1856938;77;25779;-79
2021/04/06 10:55:06;;;;;;;114.12;37.05;;;;;;;1.95;63.07;96123.84;1857024;77;25726;-79
2021/04/06 10:57:37;;;;;;;103.07;39.75;;;;;;;1.93;62.75;96124.05;1857219;77;25685;-79
2021/04/06 11:00:25;;;;;;;64.00;27.07;;;;;;;1.93;62.38;96124.56;1856947;77;25838;-79
2021/04/06 11:03:15;;;;;;;50.92;23.85;;;;;;;1.99;62.43;96131.77;1856649;77;27437;-78
2021/04/06 11:05:43;;;;;;;33.53;14.83;;;;;;;2.00;62.08;96120.94;1844347;77;25716;-79
2021/04/06 11:08:26;;;;;;;24.47;10.63;;;;;;;2.11;62.06;96115.62;1856896;77;25700;-79
2021/04/06 11:10:57;;;;;;;17.37;8.53;;;;;;;2.24;62.20;96119.73;1857147;77;25377;-78
2021/04/06 11:13:25;;;;;;;23.62;7.15;;;;;;;2.43;61.99;96116.42;1824065;77;25672;-79
2021/04/06 11:15:52;;;;;;;20.17;6.75;;;;;;;2.58;61.67;96119.00;1857197;77;28248;-79
2021/04/06 11:18:20;;;;;;;17.92;7.12;;;;;;;2.63;61.44;96111.78;1857005;77;25713;-79
2021/04/06 11:20:47;;;;;;;18.35;7.65;;;;;;;2.78;61.16;96100.49;1857065;77;25622;-79
2021/04/06 11:23:15;;;;;;;17.60;7.92;;;;;;;2.81;60.74;96110.77;1857175;77;26415;-80
2021/04/06 11:25:43;;;;;;;21.52;8.00;;;;;;;2.81;60.98;96109.44;1857111;77;25780;-79
2021/04/06 11:28:10;;;;;;;19.25;7.17;;;;;;;2.87;60.89;96100.17;1833690;77;27521;-80
2021/04/06 11:30:38;;;;;;;19.10;7.55;;;;;;;3.10;60.48;96095.90;1822746;78;25819;-79
2021/04/06 11:33:06;;;;;;;15.68;5.80;;;;;;;3.20;60.50;96087.03;1822936;78;25326;-79
2021/04/06 11:35:34;;;;;;;13.88;5.87;;;;;;;3.31;60.19;96088.81;1822938;77;25697;-78
2021/04/06 11:38:02;;;;;;;13.60;6.37;;;;;;;3.24;60.15;96091.47;1822891;78;25647;-79
2021/04/06 11:40:30;;;;;;;17.92;5.95;;;;;;;3.20;60.02;96083.53;1822905;78;28818;-79
2021/04/06 11:42:58;;;;;;;12.23;6.22;;;;;;;3.28;59.74;96074.53;1822838;78;25710;-78
2021/04/06 11:45:25;;;;;;;17.05;6.70;;;;;;;3.40;59.28;96068.95;1822897;78;25794;-79
2021/04/06 11:47:55;;;;;;;20.80;7.42;;;;;;;3.52;59.66;96056.68;1822799;78;25680;-79
2021/04/06 11:50:26;;;;;;;19.85;8.35;;;;;;;3.65;59.34;96059.91;1822939;78;25678;-79
2021/04/06 11:52:54;;;;;;;18.35;6.85;;;;;;;3.70;59.43;96062.80;1822850;78;27500;-79
2021/04/06 11:55:22;;;;;;;15.13;6.37;;;;;;;3.76;58.73;96052.64;1822888;78;26340;-78
2021/04/06 11:57:49;;;;;;;17.65;7.03;;;;;;;3.66;58.38;96061.04;1822956;78;25666;-79